createdAt,value
2023-04-26T00:00:31.210Z,7.40
2023-04-26T00:03:15.028Z,7.39
2023-04-26T00:05:43.940Z,7.37
2023-04-26T00:08:12.836Z,7.33
2023-04-26T00:10:41.527Z,7.31
2023-04-26T00:13:10.171Z,7.30
2023-04-26T00:15:38.535Z,7.30
2023-04-26T00:18:07.248Z,7.32
2023-04-26T00:20:36.070Z,7.33
2023-04-26T00:23:04.860Z,7.32
2023-04-26T00:25:33.341Z,7.29
2023-04-26T00:28:02.234Z,7.24
2023-04-26T00:30:30.778Z,7.21
2023-04-26T00:32:59.068Z,7.19
2023-04-26T00:35:27.888Z,7.18
2023-04-26T00:37:56.473Z,7.19
2023-04-26T00:40:25.152Z,7.24
2023-04-26T00:43:00.493Z,7.29
2023-04-26T00:45:29.432Z,7.35
2023-04-26T00:48:01.908Z,7.41
2023-04-26T00:50:32.089Z,7.48
2023-04-26T00:53:03.040Z,7.55
2023-04-26T00:55:31.719Z,7.58
2023-04-26T00:58:00.909Z,7.60
2023-04-26T01:00:30.124Z,7.62
2023-04-26T01:02:59.411Z,7.63
2023-04-26T01:05:27.856Z,7.63
2023-04-26T01:07:56.896Z,7.64
2023-04-26T01:10:26.037Z,7.64
2023-04-26T01:12:55.204Z,7.62
2023-04-26T01:15:25.105Z,7.62
2023-04-26T01:17:53.844Z,7.62
2023-04-26T01:20:22.592Z,7.62
2023-04-26T01:22:51.364Z,7.62
2023-04-26T01:25:20.568Z,7.61
2023-04-26T01:27:48.913Z,7.60
2023-04-26T01:30:17.861Z,7.59
2023-04-26T01:32:46.676Z,7.58
2023-04-26T01:35:15.232Z,7.56
2023-04-26T01:37:44.718Z,7.54
2023-04-26T01:40:14.013Z,7.53
2023-04-26T01:42:42.262Z,7.50
2023-04-26T01:45:12.006Z,7.51
2023-04-26T01:47:59.202Z,7.50
2023-04-26T01:50:28.012Z,7.49
2023-04-26T01:52:56.491Z,7.50
2023-04-26T01:55:24.979Z,7.50
2023-04-26T01:57:53.663Z,7.48
2023-04-26T02:00:22.388Z,7.47
2023-04-26T02:02:51.067Z,7.45
2023-04-26T02:05:20.004Z,7.42
2023-04-26T02:07:48.654Z,7.38
2023-04-26T02:10:17.551Z,7.28
2023-04-26T02:12:46.608Z,7.22
2023-04-26T02:15:15.611Z,7.18
2023-04-26T02:17:44.166Z,7.17
2023-04-26T02:20:12.986Z,7.17
2023-04-26T02:22:41.353Z,7.14
2023-04-26T02:25:10.036Z,7.12
2023-04-26T02:27:38.831Z,7.09
2023-04-26T02:30:07.924Z,7.04
2023-04-26T02:32:36.977Z,6.99
2023-04-26T02:35:06.291Z,6.94
2023-04-26T02:37:34.910Z,6.90
2023-04-26T02:40:05.738Z,6.87
2023-04-26T02:42:34.434Z,6.88
2023-04-26T02:45:02.912Z,6.90
2023-04-26T02:47:31.853Z,6.91
2023-04-26T02:50:00.693Z,6.91
2023-04-26T02:52:29.386Z,6.92
2023-04-26T02:54:58.071Z,6.92
2023-04-26T02:57:28.461Z,6.91
2023-04-26T02:59:57.340Z,6.91
2023-04-26T03:02:26.243Z,6.91
2023-04-26T03:04:56.809Z,6.90
2023-04-26T03:07:25.495Z,6.90
2023-04-26T03:09:53.976Z,6.91
2023-04-26T03:12:22.565Z,6.88
2023-04-26T03:14:51.054Z,6.86
2023-04-26T03:17:20.651Z,6.85
2023-04-26T03:19:49.338Z,6.84
2023-04-26T03:22:18.844Z,6.83
2023-04-26T03:24:47.941Z,6.81
2023-04-26T03:27:16.921Z,6.81
2023-04-26T03:29:45.723Z,6.83
2023-04-26T03:32:14.323Z,6.83
2023-04-26T03:34:43.829Z,6.81
2023-04-26T03:37:13.636Z,6.77
2023-04-26T03:39:43.648Z,6.72
2023-04-26T03:42:12.450Z,6.68
2023-04-26T03:44:41.140Z,6.66
2023-04-26T03:47:09.617Z,6.64
2023-04-26T03:49:39.125Z,6.64
2023-04-26T03:52:07.493Z,6.60
2023-04-26T03:54:36.495Z,6.56
2023-04-26T03:57:05.065Z,6.58
2023-04-26T03:59:34.265Z,6.59
2023-04-26T04:02:02.794Z,6.62
2023-04-26T04:04:32.809Z,6.65
2023-04-26T04:07:02.380Z,6.68
2023-04-26T04:09:30.859Z,6.71
2023-04-26T04:11:59.646Z,6.77
2023-04-26T04:14:28.525Z,6.85
2023-04-26T04:16:57.540Z,6.92
2023-04-26T04:19:26.640Z,7.04
2023-04-26T04:21:55.188Z,7.16
2023-04-26T04:24:24.002Z,7.25
2023-04-26T04:26:53.747Z,7.37
2023-04-26T04:29:23.018Z,7.52
2023-04-26T04:31:51.453Z,7.69
2023-04-26T04:34:20.249Z,7.83
2023-04-26T04:36:49.383Z,7.92
2023-04-26T04:39:17.660Z,8.05
2023-04-26T04:41:50.546Z,8.20
2023-04-26T04:44:20.871Z,8.33
2023-04-26T04:46:49.674Z,8.43
2023-04-26T04:49:19.374Z,8.49
2023-04-26T04:51:48.285Z,8.51
2023-04-26T04:54:18.345Z,8.53
2023-04-26T04:56:48.575Z,8.52
2023-04-26T04:59:18.526Z,8.47
2023-04-26T05:01:47.767Z,8.49
2023-04-26T05:04:17.660Z,8.52
2023-04-26T05:06:46.532Z,8.51
2023-04-26T05:09:14.912Z,8.53
2023-04-26T05:11:43.563Z,8.54
2023-04-26T05:14:12.798Z,8.52
2023-04-26T05:16:41.665Z,8.52
2023-04-26T05:19:10.375Z,8.56
2023-04-26T05:21:39.268Z,8.63
2023-04-26T05:24:08.158Z,8.66
2023-04-26T05:26:37.771Z,8.67
2023-04-26T05:29:30.620Z,8.75
2023-04-26T05:32:09.947Z,8.84
2023-04-26T05:34:42.129Z,8.99
2023-04-26T05:37:13.986Z,9.15
2023-04-26T05:39:42.577Z,9.21
2023-04-26T05:42:10.925Z,9.21
2023-04-26T05:44:39.957Z,9.33
2023-04-26T05:47:08.741Z,9.40
2023-04-26T05:49:37.224Z,9.40
2023-04-26T05:52:06.110Z,9.48
2023-04-26T05:54:34.501Z,9.57
2023-04-26T05:57:04.249Z,9.70
2023-04-26T06:04:25.362Z,10.18
2023-04-26T06:08:04.941Z,10.38
2023-04-26T06:11:36.583Z,10.54
2023-04-26T06:15:04.768Z,10.78
2023-04-26T06:18:33.971Z,11.09
2023-04-26T06:22:02.150Z,11.28
2023-04-26T06:25:30.808Z,11.49
2023-04-26T06:32:31.942Z,12.14
2023-04-26T06:36:00.448Z,12.42
2023-04-26T06:39:34.070Z,12.73
2023-04-26T06:43:02.198Z,13.03
2023-04-26T06:46:33.442Z,13.29
2023-04-26T06:49:02.435Z,13.52
2023-04-26T06:51:31.632Z,13.63
2023-04-26T06:54:01.339Z,13.71
2023-04-26T06:56:29.832Z,13.80
2023-04-26T06:59:04.089Z,13.91
2023-04-26T07:01:34.321Z,14.05
2023-04-26T07:04:14.514Z,14.23
2023-04-26T07:06:43.318Z,14.39
2023-04-26T07:09:12.711Z,14.43
2023-04-26T07:11:41.518Z,14.45
2023-04-26T07:14:12.179Z,14.52
2023-04-26T07:16:41.351Z,14.66
2023-04-26T07:19:11.467Z,14.61
2023-04-26T07:21:39.839Z,14.44
2023-04-26T07:24:08.738Z,14.52
2023-04-26T07:26:37.419Z,14.55
2023-04-26T07:29:08.361Z,14.70
2023-04-26T07:31:37.047Z,14.67
2023-04-26T07:34:05.841Z,14.73
2023-04-26T07:36:34.124Z,14.88
2023-04-26T07:39:02.674Z,14.92
2023-04-26T07:41:31.898Z,15.04
2023-04-26T07:44:00.418Z,15.07
2023-04-26T07:46:28.968Z,15.08
2023-04-26T07:48:57.861Z,15.13
2023-04-26T07:51:27.784Z,15.01
2023-04-26T07:53:56.262Z,14.81
2023-04-26T07:56:25.127Z,14.85
2023-04-26T07:58:53.748Z,14.77
2023-04-26T08:01:22.437Z,14.84
2023-04-26T08:03:51.678Z,14.96
2023-04-26T08:06:20.661Z,15.18
2023-04-26T08:08:50.998Z,15.30
2023-04-26T08:11:19.811Z,15.43
2023-04-26T08:13:48.373Z,15.48
2023-04-26T08:16:17.038Z,15.64
2023-04-26T08:18:46.909Z,15.83
2023-04-26T08:21:15.924Z,15.81
2023-04-26T08:23:44.559Z,15.92
2023-04-26T08:26:13.288Z,15.98
2023-04-26T08:28:41.770Z,15.95
2023-04-26T08:31:10.494Z,15.93
2023-04-26T08:33:39.657Z,16.07
2023-04-26T08:36:08.555Z,16.22
2023-04-26T08:38:37.251Z,16.26
2023-04-26T08:41:06.334Z,16.25
2023-04-26T08:43:38.020Z,16.59
2023-04-26T08:46:11.782Z,16.93
2023-04-26T08:48:41.141Z,17.11
2023-04-26T08:51:13.200Z,17.17
2023-04-26T08:53:43.367Z,17.33
2023-04-26T08:56:13.550Z,17.49
2023-04-26T08:58:42.409Z,17.69
2023-04-26T09:01:14.485Z,17.90
2023-04-26T09:03:43.167Z,18.15
2023-04-26T09:06:12.561Z,18.35
2023-04-26T09:08:42.700Z,18.42
2023-04-26T09:11:11.177Z,18.30
2023-04-26T09:13:39.868Z,18.20
2023-04-26T09:16:09.063Z,18.14
2023-04-26T09:18:51.066Z,18.34
2023-04-26T09:22:29.580Z,18.45
2023-04-26T09:25:55.811Z,18.69
2023-04-26T09:29:24.308Z,18.90
2023-04-26T09:32:56.541Z,19.00
2023-04-26T09:36:28.063Z,19.01
2023-04-26T09:39:56.125Z,18.94
2023-04-26T09:43:27.901Z,19.03
2023-04-26T09:46:56.261Z,18.88
2023-04-26T09:49:27.528Z,18.90
2023-04-26T09:52:06.983Z,19.08
2023-04-26T09:54:50.028Z,19.19
2023-04-26T09:57:20.076Z,19.01
2023-04-26T09:59:50.906Z,18.90
2023-04-26T10:02:22.992Z,18.86
2023-04-26T10:04:54.994Z,18.75
2023-04-26T10:07:25.683Z,18.73
2023-04-26T10:09:55.802Z,18.40
2023-04-26T10:12:24.729Z,18.29
2023-04-26T10:14:53.306Z,18.60
2023-04-26T10:17:22.232Z,18.62
2023-04-26T10:19:56.747Z,18.41
2023-04-26T10:22:28.869Z,18.54
2023-04-26T10:24:57.277Z,19.00
2023-04-26T10:27:44.805Z,19.45
2023-04-26T10:30:14.869Z,19.71
2023-04-26T10:32:52.534Z,19.67
2023-04-26T10:35:22.030Z,19.71
2023-04-26T10:38:02.817Z,19.59
2023-04-26T10:40:41.804Z,19.38
2023-04-26T10:43:10.318Z,19.25
2023-04-26T10:45:40.641Z,19.28
2023-04-26T10:48:22.548Z,19.51
2023-04-26T10:51:01.572Z,19.55
2023-04-26T10:53:34.047Z,19.82
2023-04-26T10:56:02.579Z,19.99
2023-04-26T10:58:35.311Z,20.30
2023-04-26T11:01:08.696Z,20.40
2023-04-26T11:03:38.321Z,20.51
2023-04-26T11:06:09.876Z,20.75
2023-04-26T11:08:38.666Z,20.86
2023-04-26T11:11:13.852Z,20.97
2023-04-26T11:13:44.001Z,21.32
2023-04-26T11:16:15.104Z,21.60
2023-04-26T11:18:45.799Z,21.81
2023-04-26T11:21:18.232Z,21.97
2023-04-26T11:23:56.193Z,21.78
2023-04-26T11:26:33.193Z,21.69
2023-04-26T11:29:01.857Z,21.93
2023-04-26T11:31:31.230Z,21.93
2023-04-26T11:34:06.109Z,21.70
2023-04-26T11:36:38.267Z,21.59
2023-04-26T11:39:07.565Z,21.41
2023-04-26T11:41:36.208Z,21.52
2023-04-26T11:44:04.770Z,21.47
2023-04-26T11:46:33.794Z,21.27
2023-04-26T11:49:02.426Z,21.17
2023-04-26T11:51:32.444Z,21.30
2023-04-26T11:54:02.219Z,21.52
2023-04-26T11:56:31.343Z,21.81
2023-04-26T11:59:00.122Z,22.19
2023-04-26T12:01:30.322Z,22.40
2023-04-26T12:04:00.368Z,22.59
2023-04-26T12:06:46.653Z,22.91
2023-04-26T12:09:15.261Z,23.25
2023-04-26T12:11:59.741Z,22.99
2023-04-26T12:14:35.372Z,22.33
2023-04-26T12:17:06.555Z,21.90
2023-04-26T12:19:37.384Z,21.71
2023-04-26T12:22:09.735Z,21.48
2023-04-26T12:24:38.835Z,21.62
2023-04-26T12:27:07.856Z,21.70
2023-04-26T12:29:36.520Z,21.54
2023-04-26T12:32:05.489Z,21.60
2023-04-26T12:34:34.086Z,21.78
2023-04-26T12:37:02.672Z,21.80
2023-04-26T12:39:31.572Z,21.69
2023-04-26T12:42:00.054Z,21.76
2023-04-26T12:44:28.633Z,22.06
2023-04-26T12:46:57.261Z,22.35
2023-04-26T12:49:25.928Z,22.70
2023-04-26T12:51:54.419Z,23.14
2023-04-26T12:54:22.981Z,23.62
2023-04-26T12:56:51.663Z,23.78
2023-04-26T12:59:20.451Z,23.69
2023-04-26T13:01:48.944Z,23.61
2023-04-26T13:04:17.773Z,23.60
2023-04-26T13:06:47.351Z,23.54
2023-04-26T13:09:15.814Z,23.28
2023-04-26T13:11:44.196Z,22.94
2023-04-26T13:15:12.399Z,22.20
2023-04-26T13:18:45.788Z,21.13
2023-04-26T13:22:13.911Z,20.25
2023-04-26T13:25:42.254Z,19.37
2023-04-26T13:29:10.445Z,18.75
2023-04-26T13:32:38.793Z,18.39
2023-04-26T13:36:12.537Z,18.09
2023-04-26T13:39:40.824Z,17.81
2023-04-26T13:43:09.110Z,17.69
2023-04-26T13:46:42.611Z,17.79
2023-04-26T13:49:11.097Z,18.09
2023-04-26T13:51:40.298Z,18.38
2023-04-26T13:54:11.849Z,18.57
2023-04-26T13:56:40.227Z,18.72
2023-04-26T13:59:08.917Z,18.78
2023-04-26T14:01:37.731Z,18.94
2023-04-26T14:04:06.855Z,19.11
2023-04-26T14:06:36.311Z,19.08
2023-04-26T14:09:08.781Z,18.94
2023-04-26T14:11:37.471Z,18.69
2023-04-26T14:14:06.057Z,18.57
2023-04-26T14:16:34.591Z,18.35
2023-04-26T14:19:03.757Z,18.07
2023-04-26T14:21:32.471Z,17.74
2023-04-26T14:24:01.217Z,17.35
2023-04-26T14:27:29.517Z,17.02
2023-04-26T14:29:57.888Z,16.64
2023-04-26T14:32:27.062Z,16.42
2023-04-26T14:34:55.462Z,16.27
2023-04-26T14:37:24.303Z,16.12
2023-04-26T14:39:53.062Z,15.93
2023-04-26T14:42:21.730Z,15.77
2023-04-26T14:44:50.159Z,15.58
2023-04-26T14:47:18.589Z,15.40
2023-04-26T14:49:47.019Z,15.25
2023-04-26T14:52:16.583Z,15.06
2023-04-26T14:54:45.233Z,14.86
2023-04-26T14:57:13.657Z,14.66
2023-04-26T15:00:41.719Z,14.50
2023-04-26T15:04:15.117Z,14.26
2023-04-26T15:07:43.397Z,14.12
2023-04-26T15:11:11.825Z,13.93
2023-04-26T15:14:40.115Z,13.79
2023-04-26T15:18:08.716Z,13.65
2023-04-26T15:24:39.830Z,13.46
2023-04-26T15:28:07.880Z,13.36
2023-04-26T15:31:19.574Z,13.23
2023-04-26T15:33:48.571Z,13.10
2023-04-26T15:36:20.070Z,13.00
2023-04-26T15:38:57.067Z,12.90
2023-04-26T15:46:21.983Z,12.72
2023-04-26T15:49:06.748Z,12.66
2023-04-26T15:51:35.643Z,12.56
2023-04-26T15:54:04.440Z,12.46
2023-04-26T15:56:32.810Z,12.34
2023-04-26T15:59:01.294Z,12.23
2023-04-26T16:02:29.469Z,12.12
2023-04-26T16:04:58.482Z,11.99
2023-04-26T16:07:27.158Z,11.93
2023-04-26T16:09:55.867Z,11.88
2023-04-26T16:13:24.103Z,11.83
2023-04-26T16:16:52.286Z,11.78
2023-04-26T16:20:25.523Z,11.75
2023-04-26T16:22:54.003Z,11.73
2023-04-26T16:25:22.709Z,11.67
2023-04-26T16:28:28.407Z,11.64
2023-04-26T16:30:57.082Z,11.60
2023-04-26T16:34:02.281Z,11.59
2023-04-26T16:36:31.726Z,11.59
2023-04-26T16:39:00.152Z,11.57
2023-04-26T16:41:28.737Z,11.53
2023-04-26T16:43:57.226Z,11.50
2023-04-26T16:46:25.651Z,11.49
2023-04-26T16:48:57.254Z,11.49
2023-04-26T16:52:25.393Z,11.46
2023-04-26T16:55:57.690Z,11.43
2023-04-26T16:59:25.806Z,11.36
2023-04-26T17:02:53.883Z,11.31
2023-04-26T17:05:22.356Z,11.26
2023-04-26T17:08:55.554Z,11.23
2023-04-26T17:12:23.735Z,11.17
2023-04-26T17:15:52.163Z,11.11
2023-04-26T17:19:20.323Z,11.06
2023-04-26T17:22:48.695Z,11.02
2023-04-26T17:26:16.874Z,10.99
2023-04-26T17:29:45.341Z,10.95
2023-04-26T17:33:15.067Z,10.91
2023-04-26T17:36:26.164Z,10.85
2023-04-26T17:39:51.785Z,10.80
2023-04-26T17:47:12.827Z,10.72
2023-04-26T17:49:41.416Z,10.68
2023-04-26T17:53:09.768Z,10.64
2023-04-26T17:56:40.755Z,10.58
2023-04-26T17:59:49.985Z,10.52
2023-04-26T18:02:18.980Z,10.48
2023-04-26T18:04:47.890Z,10.44
2023-04-26T18:07:16.701Z,10.40
2023-04-26T18:09:45.151Z,10.36
2023-04-26T18:12:13.762Z,10.34
2023-04-26T18:14:45.690Z,10.31
2023-04-26T18:17:15.428Z,10.29
2023-04-26T18:19:44.197Z,10.27
2023-04-26T18:22:12.877Z,10.24
2023-04-26T18:24:41.664Z,10.22
2023-04-26T18:27:12.537Z,10.21
2023-04-26T18:29:44.400Z,10.18
2023-04-26T18:32:13.375Z,10.17
2023-04-26T18:34:41.863Z,10.14
2023-04-26T18:37:10.732Z,10.13
2023-04-26T18:39:39.168Z,10.09
2023-04-26T18:42:07.714Z,10.07
2023-04-26T18:44:36.417Z,10.04
2023-04-26T18:47:05.988Z,10.01
2023-04-26T18:49:40.315Z,9.99
2023-04-26T18:52:10.124Z,9.97
2023-04-26T18:54:39.224Z,9.94
2023-04-26T18:57:07.738Z,9.92
2023-04-26T18:59:39.050Z,9.89
2023-04-26T19:06:59.393Z,9.83
2023-04-26T19:10:27.763Z,9.80
2023-04-26T19:14:01.586Z,9.75
2023-04-26T19:17:31.653Z,9.71
2023-04-26T19:21:00.001Z,9.67
2023-04-26T19:24:30.176Z,9.65
2023-04-26T19:27:58.813Z,9.61
2023-04-26T19:31:34.601Z,9.57
2023-04-26T19:35:03.061Z,9.53
2023-04-26T19:38:31.190Z,9.49
2023-04-26T19:45:57.202Z,9.39
2023-04-26T19:49:02.063Z,9.32
2023-04-26T19:51:32.052Z,9.27
2023-04-26T19:54:00.841Z,9.22
2023-04-26T19:56:29.738Z,9.18
2023-04-26T19:58:58.160Z,9.15
2023-04-26T20:01:27.009Z,9.11
2023-04-26T20:03:55.976Z,9.08
2023-04-26T20:06:24.689Z,9.07
2023-04-26T20:08:53.326Z,9.05
2023-04-26T20:11:22.677Z,9.02
2023-04-26T20:13:51.903Z,8.99
2023-04-26T20:16:20.255Z,8.94
2023-04-26T20:18:48.631Z,8.87
2023-04-26T20:21:17.213Z,8.81
2023-04-26T20:23:45.998Z,8.76
2023-04-26T20:26:14.486Z,8.73
2023-04-26T20:28:42.968Z,8.71
2023-04-26T20:31:12.061Z,8.68
2023-04-26T20:33:40.338Z,8.65
2023-04-26T20:36:09.432Z,8.63
2023-04-26T20:38:38.396Z,8.61
2023-04-26T20:41:06.803Z,8.57
2023-04-26T20:43:35.602Z,8.53
2023-04-26T20:46:04.647Z,8.49
2023-04-26T20:48:33.281Z,8.45
2023-04-26T20:51:02.274Z,8.41
2023-04-26T20:53:31.372Z,8.38
2023-04-26T20:55:59.958Z,8.35
2023-04-26T20:58:30.075Z,8.34
2023-04-26T21:00:59.723Z,8.31
2023-04-26T21:04:28.124Z,8.28
2023-04-26T21:07:56.423Z,8.25
2023-04-26T21:11:24.453Z,8.20
2023-04-26T21:14:56.402Z,8.15
2023-04-26T21:18:24.615Z,8.13
2023-04-26T21:21:52.823Z,8.08
2023-04-26T21:25:26.363Z,8.02
2023-04-26T21:28:54.630Z,7.98
2023-04-26T21:32:22.678Z,7.96
2023-04-26T21:35:51.023Z,7.93
2023-04-26T21:39:19.205Z,7.92
2023-04-26T21:43:03.854Z,7.89
2023-04-26T21:46:33.311Z,7.87
2023-04-26T21:49:02.491Z,7.85
2023-04-26T21:51:31.694Z,7.84
2023-04-26T21:54:00.126Z,7.82
2023-04-26T21:56:28.750Z,7.79
2023-04-26T21:58:57.131Z,7.77
2023-04-26T22:01:25.852Z,7.74
2023-04-26T22:03:54.542Z,7.71
2023-04-26T22:06:23.195Z,7.67
2023-04-26T22:08:51.872Z,7.63
2023-04-26T22:11:20.298Z,7.59
2023-04-26T22:13:48.835Z,7.56
2023-04-26T22:16:17.340Z,7.53
2023-04-26T22:18:45.822Z,7.49
2023-04-26T22:21:14.280Z,7.46
2023-04-26T22:23:42.660Z,7.43
2023-04-26T22:26:11.448Z,7.41
2023-04-26T22:28:39.984Z,7.40
2023-04-26T22:31:08.312Z,7.39
2023-04-26T22:33:37.068Z,7.38
2023-04-26T22:36:06.295Z,7.38
2023-04-26T22:38:34.576Z,7.37
2023-04-26T22:41:04.695Z,7.36
2023-04-26T22:43:34.147Z,7.35
2023-04-26T22:46:02.511Z,7.33
2023-04-26T22:48:31.173Z,7.33
2023-04-26T22:51:00.201Z,7.33
2023-04-26T22:53:28.639Z,7.32
2023-04-26T22:55:57.011Z,7.32
2023-04-26T22:58:25.611Z,7.33
2023-04-26T23:00:54.136Z,7.35
2023-04-26T23:03:23.163Z,7.36
2023-04-26T23:05:52.076Z,7.37
2023-04-26T23:08:20.493Z,7.37
2023-04-26T23:10:49.421Z,7.37
2023-04-26T23:13:17.938Z,7.36
2023-04-26T23:15:46.514Z,7.34
2023-04-26T23:18:16.531Z,7.32
2023-04-26T23:20:45.014Z,7.30
2023-04-26T23:23:13.495Z,7.29
2023-04-26T23:25:42.422Z,7.29
2023-04-26T23:28:11.091Z,7.30
2023-04-26T23:30:39.557Z,7.30
2023-04-26T23:33:08.100Z,7.32
2023-04-26T23:35:41.615Z,7.32
2023-04-26T23:38:10.161Z,7.32
2023-04-26T23:40:38.706Z,7.32
2023-04-26T23:43:07.495Z,7.31
2023-04-26T23:45:36.181Z,7.29
2023-04-26T23:48:05.402Z,7.27
2023-04-26T23:50:33.757Z,7.25
2023-04-26T23:53:02.137Z,7.25
2023-04-26T23:55:31.030Z,7.25
2023-04-26T23:57:59.513Z,7.24
